sensor_id;sensor_type;location;lat;lon;timestamp;P1;durP1;ratioP1;P2;durP2;ratioP2
20669;SDS011;10494;50.868;4.180;2022-11-20T00:00:03;76.57;;;31.70;;
20669;SDS011;10494;50.868;4.180;2022-11-20T00:02:29;71.07;;;31.97;;
20669;SDS011;10494;50.868;4.180;2022-11-20T00:04:55;82.13;;;35.43;;
20669;SDS011;10494;50.868;4.180;2022-11-20T00:07:20;69.73;;;32.83;;
20669;SDS011;10494;50.868;4.180;2022-11-20T00:09:46;73.07;;;33.10;;
20669;SDS011;10494;50.868;4.180;2022-11-20T00:12:11;70.27;;;32.10;;
20669;SDS011;10494;50.868;4.180;2022-11-20T00:14:38;71.53;;;32.50;;
20669;SDS011;10494;50.868;4.180;2022-11-20T00:17:03;71.87;;;32.97;;
20669;SDS011;10494;50.868;4.180;2022-11-20T00:19:29;71.50;;;32.10;;
20669;SDS011;10494;50.868;4.180;2022-11-20T00:21:54;70.50;;;32.57;;
20669;SDS011;10494;50.868;4.180;2022-11-20T00:24:20;73.53;;;31.80;;
20669;SDS011;10494;50.868;4.180;2022-11-20T00:26:46;81.53;;;32.97;;
20669;SDS011;10494;50.868;4.180;2022-11-20T00:29:12;80.60;;;33.30;;
20669;SDS011;10494;50.868;4.180;2022-11-20T00:31:37;89.77;;;35.07;;
20669;SDS011;10494;50.868;4.180;2022-11-20T00:34:03;75.90;;;32.23;;
20669;SDS011;10494;50.868;4.180;2022-11-20T00:36:29;75.93;;;35.00;;
20669;SDS011;10494;50.868;4.180;2022-11-20T00:38:58;74.10;;;32.67;;
20669;SDS011;10494;50.868;4.180;2022-11-20T00:41:24;73.10;;;33.77;;
20669;SDS011;10494;50.868;4.180;2022-11-20T00:43:52;74.87;;;32.90;;
20669;SDS011;10494;50.868;4.180;2022-11-20T00:46:20;72.80;;;33.90;;
20669;SDS011;10494;50.868;4.180;2022-11-20T00:48:47;70.73;;;32.40;;
20669;SDS011;10494;50.868;4.180;2022-11-20T00:51:14;75.27;;;33.07;;
20669;SDS011;10494;50.868;4.180;2022-11-20T00:53:42;67.23;;;32.60;;
20669;SDS011;10494;50.868;4.180;2022-11-20T00:56:12;70.67;;;33.93;;
20669;SDS011;10494;50.868;4.180;2022-11-20T00:58:40;68.00;;;33.43;;
20669;SDS011;10494;50.868;4.180;2022-11-20T01:01:08;74.27;;;32.93;;
20669;SDS011;10494;50.868;4.180;2022-11-20T01:03:36;72.73;;;33.43;;
20669;SDS011;10494;50.868;4.180;2022-11-20T01:06:04;76.17;;;34.13;;
20669;SDS011;10494;50.868;4.180;2022-11-20T01:08:35;71.07;;;31.83;;
20669;SDS011;10494;50.868;4.180;2022-11-20T01:11:05;75.20;;;32.87;;
20669;SDS011;10494;50.868;4.180;2022-11-20T01:13:38;68.33;;;32.23;;
20669;SDS011;10494;50.868;4.180;2022-11-20T01:16:09;77.53;;;33.33;;
20669;SDS011;10494;50.868;4.180;2022-11-20T01:18:38;71.87;;;34.20;;
20669;SDS011;10494;50.868;4.180;2022-11-20T01:21:08;63.70;;;31.33;;
20669;SDS011;10494;50.868;4.180;2022-11-20T01:23:42;67.13;;;31.50;;
20669;SDS011;10494;50.868;4.180;2022-11-20T01:26:09;67.23;;;32.50;;
20669;SDS011;10494;50.868;4.180;2022-11-20T01:28:37;72.73;;;34.10;;
20669;SDS011;10494;50.868;4.180;2022-11-20T01:33:49;78.93;;;32.67;;
20669;SDS011;10494;50.868;4.180;2022-11-20T01:36:18;80.83;;;33.30;;
20669;SDS011;10494;50.868;4.180;2022-11-20T01:38:45;77.60;;;32.40;;
20669;SDS011;10494;50.868;4.180;2022-11-20T01:41:11;72.83;;;32.90;;
20669;SDS011;10494;50.868;4.180;2022-11-20T01:44:01;79.53;;;34.60;;
20669;SDS011;10494;50.868;4.180;2022-11-20T01:46:27;70.37;;;30.73;;
20669;SDS011;10494;50.868;4.180;2022-11-20T01:51:52;71.07;;;32.57;;
20669;SDS011;10494;50.868;4.180;2022-11-20T01:54:30;73.03;;;33.37;;
20669;SDS011;10494;50.868;4.180;2022-11-20T01:57:05;71.97;;;32.43;;
20669;SDS011;10494;50.868;4.180;2022-11-20T01:59:34;80.47;;;31.60;;
20669;SDS011;10494;50.868;4.180;2022-11-20T02:02:04;74.90;;;34.77;;
20669;SDS011;10494;50.868;4.180;2022-11-20T02:04:30;75.97;;;34.13;;
20669;SDS011;10494;50.868;4.180;2022-11-20T02:06:59;82.93;;;35.03;;
20669;SDS011;10494;50.868;4.180;2022-11-20T02:09:26;84.93;;;33.93;;
20669;SDS011;10494;50.868;4.180;2022-11-20T02:11:53;74.17;;;32.83;;
20669;SDS011;10494;50.868;4.180;2022-11-20T02:14:20;80.87;;;34.70;;
20669;SDS011;10494;50.868;4.180;2022-11-20T02:16:48;85.30;;;34.73;;
20669;SDS011;10494;50.868;4.180;2022-11-20T02:19:28;88.13;;;36.10;;
20669;SDS011;10494;50.868;4.180;2022-11-20T02:21:58;83.47;;;34.50;;
20669;SDS011;10494;50.868;4.180;2022-11-20T02:24:44;79.27;;;33.60;;
20669;SDS011;10494;50.868;4.180;2022-11-20T02:27:11;76.53;;;33.73;;
20669;SDS011;10494;50.868;4.180;2022-11-20T02:29:40;80.53;;;34.67;;
20669;SDS011;10494;50.868;4.180;2022-11-20T02:34:46;85.43;;;33.47;;
20669;SDS011;10494;50.868;4.180;2022-11-20T02:37:12;86.83;;;35.67;;
20669;SDS011;10494;50.868;4.180;2022-11-20T02:39:38;78.40;;;34.27;;
20669;SDS011;10494;50.868;4.180;2022-11-20T02:42:04;81.07;;;35.27;;
20669;SDS011;10494;50.868;4.180;2022-11-20T02:44:30;88.47;;;33.40;;
20669;SDS011;10494;50.868;4.180;2022-11-20T02:46:59;87.33;;;35.53;;
20669;SDS011;10494;50.868;4.180;2022-11-20T02:49:24;89.30;;;34.77;;
20669;SDS011;10494;50.868;4.180;2022-11-20T02:51:50;73.67;;;31.83;;
20669;SDS011;10494;50.868;4.180;2022-11-20T02:54:16;84.53;;;33.90;;
20669;SDS011;10494;50.868;4.180;2022-11-20T02:56:42;84.23;;;32.53;;
20669;SDS011;10494;50.868;4.180;2022-11-20T02:59:08;77.60;;;33.77;;
20669;SDS011;10494;50.868;4.180;2022-11-20T03:01:35;76.20;;;31.40;;
20669;SDS011;10494;50.868;4.180;2022-11-20T03:04:00;80.47;;;33.70;;
20669;SDS011;10494;50.868;4.180;2022-11-20T03:06:26;84.47;;;33.13;;
20669;SDS011;10494;50.868;4.180;2022-11-20T03:08:52;70.90;;;31.90;;
20669;SDS011;10494;50.868;4.180;2022-11-20T03:11:17;80.37;;;32.90;;
20669;SDS011;10494;50.868;4.180;2022-11-20T03:13:43;80.87;;;34.10;;
20669;SDS011;10494;50.868;4.180;2022-11-20T03:16:10;84.73;;;33.23;;
20669;SDS011;10494;50.868;4.180;2022-11-20T03:18:39;82.50;;;32.83;;
20669;SDS011;10494;50.868;4.180;2022-11-20T03:21:05;78.53;;;31.87;;
20669;SDS011;10494;50.868;4.180;2022-11-20T03:23:32;87.30;;;35.13;;
20669;SDS011;10494;50.868;4.180;2022-11-20T03:28:37;82.13;;;32.90;;
20669;SDS011;10494;50.868;4.180;2022-11-20T03:31:10;74.03;;;31.17;;
20669;SDS011;10494;50.868;4.180;2022-11-20T03:33:38;81.43;;;32.90;;
20669;SDS011;10494;50.868;4.180;2022-11-20T03:36:05;86.50;;;33.10;;
20669;SDS011;10494;50.868;4.180;2022-11-20T03:38:32;70.70;;;31.37;;
20669;SDS011;10494;50.868;4.180;2022-11-20T03:40:59;75.07;;;32.57;;
20669;SDS011;10494;50.868;4.180;2022-11-20T03:43:26;74.90;;;31.67;;
20669;SDS011;10494;50.868;4.180;2022-11-20T03:45:52;78.03;;;32.30;;
20669;SDS011;10494;50.868;4.180;2022-11-20T03:48:18;80.20;;;33.00;;
20669;SDS011;10494;50.868;4.180;2022-11-20T03:50:44;73.70;;;31.03;;
20669;SDS011;10494;50.868;4.180;2022-11-20T03:53:12;76.73;;;32.27;;
20669;SDS011;10494;50.868;4.180;2022-11-20T03:55:40;83.37;;;32.87;;
20669;SDS011;10494;50.868;4.180;2022-11-20T03:58:06;83.90;;;33.40;;
20669;SDS011;10494;50.868;4.180;2022-11-20T04:00:32;80.90;;;31.73;;
20669;SDS011;10494;50.868;4.180;2022-11-20T04:02:58;80.77;;;31.67;;
20669;SDS011;10494;50.868;4.180;2022-11-20T04:05:25;79.33;;;31.57;;
20669;SDS011;10494;50.868;4.180;2022-11-20T04:07:50;81.97;;;31.47;;
20669;SDS011;10494;50.868;4.180;2022-11-20T04:10:16;80.73;;;31.43;;
20669;SDS011;10494;50.868;4.180;2022-11-20T04:12:42;84.80;;;32.77;;
20669;SDS011;10494;50.868;4.180;2022-11-20T04:15:07;79.57;;;33.10;;
20669;SDS011;10494;50.868;4.180;2022-11-20T04:17:35;91.23;;;33.37;;
20669;SDS011;10494;50.868;4.180;2022-11-20T04:20:00;84.00;;;31.47;;
20669;SDS011;10494;50.868;4.180;2022-11-20T04:22:26;88.30;;;32.20;;
20669;SDS011;10494;50.868;4.180;2022-11-20T04:24:52;87.93;;;32.60;;
20669;SDS011;10494;50.868;4.180;2022-11-20T04:27:18;93.83;;;32.87;;
20669;SDS011;10494;50.868;4.180;2022-11-20T04:29:43;94.20;;;32.20;;
20669;SDS011;10494;50.868;4.180;2022-11-20T04:32:09;88.80;;;33.63;;
20669;SDS011;10494;50.868;4.180;2022-11-20T04:34:34;105.00;;;34.30;;
20669;SDS011;10494;50.868;4.180;2022-11-20T04:37:00;94.13;;;33.70;;
20669;SDS011;10494;50.868;4.180;2022-11-20T04:39:26;96.83;;;32.60;;
20669;SDS011;10494;50.868;4.180;2022-11-20T04:41:51;103.90;;;34.90;;
20669;SDS011;10494;50.868;4.180;2022-11-20T04:44:35;99.93;;;34.80;;
20669;SDS011;10494;50.868;4.180;2022-11-20T04:47:01;101.53;;;33.43;;
20669;SDS011;10494;50.868;4.180;2022-11-20T04:49:26;96.67;;;34.63;;
20669;SDS011;10494;50.868;4.180;2022-11-20T04:51:55;87.57;;;33.07;;
20669;SDS011;10494;50.868;4.180;2022-11-20T04:54:20;107.67;;;33.33;;
20669;SDS011;10494;50.868;4.180;2022-11-20T04:56:49;103.30;;;35.03;;
20669;SDS011;10494;50.868;4.180;2022-11-20T04:59:15;100.13;;;33.87;;
20669;SDS011;10494;50.868;4.180;2022-11-20T05:01:41;102.30;;;36.03;;
20669;SDS011;10494;50.868;4.180;2022-11-20T05:04:06;92.10;;;32.27;;
20669;SDS011;10494;50.868;4.180;2022-11-20T05:06:32;109.40;;;34.70;;
20669;SDS011;10494;50.868;4.180;2022-11-20T05:08:58;108.00;;;36.03;;
20669;SDS011;10494;50.868;4.180;2022-11-20T05:11:24;100.63;;;36.37;;
20669;SDS011;10494;50.868;4.180;2022-11-20T05:13:50;106.20;;;34.40;;
20669;SDS011;10494;50.868;4.180;2022-11-20T05:16:17;110.37;;;35.47;;
20669;SDS011;10494;50.868;4.180;2022-11-20T05:18:45;104.00;;;35.40;;
20669;SDS011;10494;50.868;4.180;2022-11-20T05:21:12;109.70;;;36.90;;
20669;SDS011;10494;50.868;4.180;2022-11-20T05:23:38;117.47;;;38.67;;
20669;SDS011;10494;50.868;4.180;2022-11-20T05:26:04;116.80;;;35.20;;
20669;SDS011;10494;50.868;4.180;2022-11-20T05:28:31;110.73;;;36.63;;
20669;SDS011;10494;50.868;4.180;2022-11-20T05:31:04;104.80;;;35.33;;
20669;SDS011;10494;50.868;4.180;2022-11-20T05:33:33;110.27;;;34.03;;
20669;SDS011;10494;50.868;4.180;2022-11-20T05:36:00;113.27;;;36.33;;
20669;SDS011;10494;50.868;4.180;2022-11-20T05:38:27;110.37;;;36.00;;
20669;SDS011;10494;50.868;4.180;2022-11-20T05:40:52;121.60;;;37.60;;
20669;SDS011;10494;50.868;4.180;2022-11-20T05:43:18;116.87;;;37.67;;
20669;SDS011;10494;50.868;4.180;2022-11-20T05:45:51;117.03;;;37.93;;
20669;SDS011;10494;50.868;4.180;2022-11-20T05:48:17;124.13;;;37.97;;
20669;SDS011;10494;50.868;4.180;2022-11-20T05:50:43;115.40;;;38.30;;
20669;SDS011;10494;50.868;4.180;2022-11-20T05:53:08;116.20;;;35.67;;
20669;SDS011;10494;50.868;4.180;2022-11-20T05:55:34;114.30;;;35.83;;
20669;SDS011;10494;50.868;4.180;2022-11-20T05:58:00;116.87;;;38.10;;
20669;SDS011;10494;50.868;4.180;2022-11-20T06:00:25;122.70;;;36.07;;
20669;SDS011;10494;50.868;4.180;2022-11-20T06:02:51;120.70;;;36.73;;
20669;SDS011;10494;50.868;4.180;2022-11-20T06:05:16;115.37;;;34.90;;
20669;SDS011;10494;50.868;4.180;2022-11-20T06:07:42;124.20;;;37.63;;
20669;SDS011;10494;50.868;4.180;2022-11-20T06:10:07;115.77;;;35.13;;
20669;SDS011;10494;50.868;4.180;2022-11-20T06:12:33;104.33;;;35.53;;
20669;SDS011;10494;50.868;4.180;2022-11-20T06:14:59;109.47;;;35.60;;
20669;SDS011;10494;50.868;4.180;2022-11-20T06:17:25;116.50;;;35.43;;
20669;SDS011;10494;50.868;4.180;2022-11-20T06:19:51;116.30;;;37.20;;
20669;SDS011;10494;50.868;4.180;2022-11-20T06:22:17;114.93;;;37.67;;
20669;SDS011;10494;50.868;4.180;2022-11-20T06:24:42;108.80;;;34.90;;
20669;SDS011;10494;50.868;4.180;2022-11-20T06:27:08;102.87;;;34.73;;
20669;SDS011;10494;50.868;4.180;2022-11-20T06:29:33;112.87;;;36.60;;
20669;SDS011;10494;50.868;4.180;2022-11-20T06:31:59;108.80;;;35.50;;
20669;SDS011;10494;50.868;4.180;2022-11-20T06:34:26;89.97;;;32.57;;
20669;SDS011;10494;50.868;4.180;2022-11-20T06:36:51;105.07;;;35.10;;
20669;SDS011;10494;50.868;4.180;2022-11-20T06:39:17;108.67;;;35.50;;
20669;SDS011;10494;50.868;4.180;2022-11-20T06:41:42;98.27;;;34.07;;
20669;SDS011;10494;50.868;4.180;2022-11-20T06:44:08;97.17;;;33.27;;
20669;SDS011;10494;50.868;4.180;2022-11-20T06:46:33;96.97;;;33.87;;
20669;SDS011;10494;50.868;4.180;2022-11-20T06:48:59;99.83;;;34.77;;
20669;SDS011;10494;50.868;4.180;2022-11-20T06:51:25;101.90;;;34.33;;
20669;SDS011;10494;50.868;4.180;2022-11-20T06:53:50;96.13;;;32.70;;
20669;SDS011;10494;50.868;4.180;2022-11-20T06:56:16;96.17;;;32.93;;
20669;SDS011;10494;50.868;4.180;2022-11-20T06:58:41;94.00;;;33.60;;
20669;SDS011;10494;50.868;4.180;2022-11-20T07:01:08;84.20;;;33.40;;
20669;SDS011;10494;50.868;4.180;2022-11-20T07:03:36;92.13;;;31.73;;
20669;SDS011;10494;50.868;4.180;2022-11-20T07:06:03;96.20;;;33.20;;
20669;SDS011;10494;50.868;4.180;2022-11-20T07:08:29;94.73;;;33.27;;
20669;SDS011;10494;50.868;4.180;2022-11-20T07:10:59;89.43;;;31.37;;
20669;SDS011;10494;50.868;4.180;2022-11-20T07:13:26;85.00;;;30.93;;
20669;SDS011;10494;50.868;4.180;2022-11-20T07:15:52;81.20;;;30.97;;
20669;SDS011;10494;50.868;4.180;2022-11-20T07:18:17;87.43;;;31.47;;
20669;SDS011;10494;50.868;4.180;2022-11-20T07:20:43;91.80;;;32.37;;
20669;SDS011;10494;50.868;4.180;2022-11-20T07:23:08;95.20;;;33.07;;
20669;SDS011;10494;50.868;4.180;2022-11-20T07:25:34;86.63;;;32.43;;
20669;SDS011;10494;50.868;4.180;2022-11-20T07:28:00;91.63;;;30.67;;
20669;SDS011;10494;50.868;4.180;2022-11-20T07:30:27;88.00;;;32.20;;
20669;SDS011;10494;50.868;4.180;2022-11-20T07:32:53;94.67;;;31.30;;
20669;SDS011;10494;50.868;4.180;2022-11-20T07:35:20;88.63;;;32.53;;
20669;SDS011;10494;50.868;4.180;2022-11-20T07:37:46;89.17;;;31.90;;
20669;SDS011;10494;50.868;4.180;2022-11-20T07:40:13;96.23;;;32.33;;
20669;SDS011;10494;50.868;4.180;2022-11-20T07:42:46;103.30;;;33.60;;
20669;SDS011;10494;50.868;4.180;2022-11-20T07:45:13;89.80;;;30.90;;
20669;SDS011;10494;50.868;4.180;2022-11-20T07:47:38;93.03;;;32.33;;
20669;SDS011;10494;50.868;4.180;2022-11-20T07:50:04;95.97;;;32.43;;
20669;SDS011;10494;50.868;4.180;2022-11-20T07:52:30;109.30;;;33.73;;
20669;SDS011;10494;50.868;4.180;2022-11-20T07:54:56;104.77;;;34.10;;
20669;SDS011;10494;50.868;4.180;2022-11-20T07:57:21;93.87;;;31.90;;
20669;SDS011;10494;50.868;4.180;2022-11-20T07:59:47;100.90;;;32.60;;
20669;SDS011;10494;50.868;4.180;2022-11-20T08:02:12;108.30;;;33.33;;
20669;SDS011;10494;50.868;4.180;2022-11-20T08:04:38;102.53;;;31.97;;
20669;SDS011;10494;50.868;4.180;2022-11-20T08:07:03;94.17;;;32.30;;
20669;SDS011;10494;50.868;4.180;2022-11-20T08:09:29;109.73;;;32.60;;
20669;SDS011;10494;50.868;4.180;2022-11-20T08:11:54;109.07;;;32.90;;
20669;SDS011;10494;50.868;4.180;2022-11-20T08:14:39;108.97;;;30.67;;
20669;SDS011;10494;50.868;4.180;2022-11-20T08:17:04;112.00;;;32.23;;
20669;SDS011;10494;50.868;4.180;2022-11-20T08:19:30;111.63;;;31.93;;
20669;SDS011;10494;50.868;4.180;2022-11-20T08:21:55;103.37;;;34.00;;
20669;SDS011;10494;50.868;4.180;2022-11-20T08:24:21;111.07;;;32.87;;
20669;SDS011;10494;50.868;4.180;2022-11-20T08:26:46;110.47;;;32.27;;
20669;SDS011;10494;50.868;4.180;2022-11-20T08:29:12;111.83;;;34.47;;
20669;SDS011;10494;50.868;4.180;2022-11-20T08:31:38;121.07;;;33.07;;
20669;SDS011;10494;50.868;4.180;2022-11-20T08:34:03;108.43;;;31.30;;
20669;SDS011;10494;50.868;4.180;2022-11-20T08:36:32;109.73;;;32.13;;
20669;SDS011;10494;50.868;4.180;2022-11-20T08:38:58;111.63;;;34.63;;
20669;SDS011;10494;50.868;4.180;2022-11-20T08:41:23;106.60;;;32.67;;
20669;SDS011;10494;50.868;4.180;2022-11-20T08:43:51;99.90;;;30.77;;
20669;SDS011;10494;50.868;4.180;2022-11-20T08:46:24;107.27;;;32.23;;
20669;SDS011;10494;50.868;4.180;2022-11-20T08:48:51;94.50;;;30.43;;
20669;SDS011;10494;50.868;4.180;2022-11-20T08:51:17;90.17;;;27.83;;
20669;SDS011;10494;50.868;4.180;2022-11-20T08:53:44;80.70;;;27.77;;
20669;SDS011;10494;50.868;4.180;2022-11-20T08:56:10;87.60;;;26.70;;
20669;SDS011;10494;50.868;4.180;2022-11-20T08:58:36;73.17;;;25.97;;
20669;SDS011;10494;50.868;4.180;2022-11-20T09:01:02;75.40;;;25.63;;
20669;SDS011;10494;50.868;4.180;2022-11-20T09:03:27;75.63;;;25.07;;
20669;SDS011;10494;50.868;4.180;2022-11-20T09:06:00;66.33;;;25.00;;
20669;SDS011;10494;50.868;4.180;2022-11-20T09:08:27;75.83;;;24.70;;
20669;SDS011;10494;50.868;4.180;2022-11-20T09:10:53;60.27;;;22.67;;
20669;SDS011;10494;50.868;4.180;2022-11-20T09:13:20;71.33;;;24.67;;
20669;SDS011;10494;50.868;4.180;2022-11-20T09:15:46;64.07;;;23.67;;
20669;SDS011;10494;50.868;4.180;2022-11-20T09:18:12;67.40;;;24.03;;
20669;SDS011;10494;50.868;4.180;2022-11-20T09:20:38;63.30;;;23.30;;
20669;SDS011;10494;50.868;4.180;2022-11-20T09:23:04;60.23;;;23.67;;
20669;SDS011;10494;50.868;4.180;2022-11-20T09:25:29;61.20;;;23.93;;
20669;SDS011;10494;50.868;4.180;2022-11-20T09:27:58;66.43;;;23.07;;
20669;SDS011;10494;50.868;4.180;2022-11-20T09:30:24;62.40;;;21.73;;
20669;SDS011;10494;50.868;4.180;2022-11-20T09:32:51;57.77;;;22.33;;
20669;SDS011;10494;50.868;4.180;2022-11-20T09:35:17;56.43;;;21.07;;
20669;SDS011;10494;50.868;4.180;2022-11-20T09:37:43;58.13;;;21.70;;
20669;SDS011;10494;50.868;4.180;2022-11-20T09:40:17;60.13;;;20.40;;
20669;SDS011;10494;50.868;4.180;2022-11-20T09:56:29;43.30;;;17.03;;
20669;SDS011;10494;50.868;4.180;2022-11-20T09:58:57;53.47;;;19.03;;
20669;SDS011;10494;50.868;4.180;2022-11-20T10:01:29;35.35;;;15.30;;
20669;SDS011;10494;50.868;4.180;2022-11-20T10:04:11;32.03;;;14.33;;
20669;SDS011;10494;50.868;4.180;2022-11-20T10:06:47;26.27;;;13.00;;
20669;SDS011;10494;50.868;4.180;2022-11-20T10:09:40;27.47;;;12.77;;
20669;SDS011;10494;50.868;4.180;2022-11-20T10:26:16;15.88;;;7.80;;
20669;SDS011;10494;50.868;4.180;2022-11-20T10:31:36;13.57;;;7.10;;
20669;SDS011;10494;50.868;4.180;2022-11-20T10:37:06;14.52;;;6.65;;
20669;SDS011;10494;50.868;4.180;2022-11-20T10:39:40;13.40;;;5.72;;
20669;SDS011;10494;50.868;4.180;2022-11-20T10:42:17;14.02;;;5.15;;
20669;SDS011;10494;50.868;4.180;2022-11-20T10:45:03;13.07;;;4.80;;
20669;SDS011;10494;50.868;4.180;2022-11-20T10:47:44;13.45;;;4.68;;
20669;SDS011;10494;50.868;4.180;2022-11-20T10:50:10;12.60;;;4.53;;
20669;SDS011;10494;50.868;4.180;2022-11-20T10:55:24;10.02;;;4.22;;
20669;SDS011;10494;50.868;4.180;2022-11-20T11:00:33;6.97;;;3.88;;
20669;SDS011;10494;50.868;4.180;2022-11-20T11:02:58;11.02;;;3.75;;
20669;SDS011;10494;50.868;4.180;2022-11-20T11:08:12;8.52;;;3.60;;
20669;SDS011;10494;50.868;4.180;2022-11-20T11:14:07;10.52;;;3.20;;
20669;SDS011;10494;50.868;4.180;2022-11-20T11:16:40;6.45;;;2.80;;
20669;SDS011;10494;50.868;4.180;2022-11-20T11:19:18;6.45;;;2.75;;
20669;SDS011;10494;50.868;4.180;2022-11-20T11:21:48;9.88;;;2.88;;
20669;SDS011;10494;50.868;4.180;2022-11-20T11:24:26;8.63;;;2.47;;
20669;SDS011;10494;50.868;4.180;2022-11-20T11:26:57;5.18;;;2.88;;
20669;SDS011;10494;50.868;4.180;2022-11-20T11:29:29;6.80;;;2.28;;
20669;SDS011;10494;50.868;4.180;2022-11-20T11:32:15;9.38;;;2.90;;
20669;SDS011;10494;50.868;4.180;2022-11-20T11:34:43;6.00;;;2.65;;
20669;SDS011;10494;50.868;4.180;2022-11-20T11:37:13;6.40;;;2.50;;
20669;SDS011;10494;50.868;4.180;2022-11-20T11:39:43;6.95;;;3.03;;
20669;SDS011;10494;50.868;4.180;2022-11-20T11:42:12;8.32;;;2.58;;
20669;SDS011;10494;50.868;4.180;2022-11-20T11:44:46;7.85;;;2.70;;
20669;SDS011;10494;50.868;4.180;2022-11-20T11:47:42;8.75;;;2.60;;
20669;SDS011;10494;50.868;4.180;2022-11-20T12:00:57;7.53;;;2.50;;
20669;SDS011;10494;50.868;4.180;2022-11-20T12:03:38;12.23;;;3.27;;
20669;SDS011;10494;50.868;4.180;2022-11-20T12:06:12;10.67;;;2.80;;
20669;SDS011;10494;50.868;4.180;2022-11-20T12:11:32;7.83;;;2.80;;
20669;SDS011;10494;50.868;4.180;2022-11-20T12:16:51;6.33;;;3.43;;
20669;SDS011;10494;50.868;4.180;2022-11-20T12:19:19;10.40;;;3.70;;
20669;SDS011;10494;50.868;4.180;2022-11-20T12:40:56;16.07;;;5.70;;
20669;SDS011;10494;50.868;4.180;2022-11-20T12:47:12;11.23;;;5.23;;
20669;SDS011;10494;50.868;4.180;2022-11-20T12:52:51;12.43;;;4.90;;
20669;SDS011;10494;50.868;4.180;2022-11-20T13:00:33;18.60;;;6.07;;
20669;SDS011;10494;50.868;4.180;2022-11-20T13:08:24;18.00;;;5.90;;
20669;SDS011;10494;50.868;4.180;2022-11-20T13:16:24;9.63;;;4.20;;
20669;SDS011;10494;50.868;4.180;2022-11-20T13:19:08;9.50;;;4.37;;
20669;SDS011;10494;50.868;4.180;2022-11-20T13:21:37;9.10;;;4.10;;
20669;SDS011;10494;50.868;4.180;2022-11-20T13:24:05;9.23;;;4.53;;
20669;SDS011;10494;50.868;4.180;2022-11-20T13:27:04;10.03;;;4.50;;
20669;SDS011;10494;50.868;4.180;2022-11-20T13:29:33;8.93;;;4.00;;
20669;SDS011;10494;50.868;4.180;2022-11-20T13:32:07;7.33;;;4.20;;
20669;SDS011;10494;50.868;4.180;2022-11-20T13:34:38;13.57;;;4.40;;
20669;SDS011;10494;50.868;4.180;2022-11-20T13:37:03;9.13;;;4.67;;
20669;SDS011;10494;50.868;4.180;2022-11-20T13:39:32;5.03;;;3.27;;
20669;SDS011;10494;50.868;4.180;2022-11-20T13:42:00;6.57;;;4.03;;
20669;SDS011;10494;50.868;4.180;2022-11-20T13:44:50;5.13;;;3.57;;
20669;SDS011;10494;50.868;4.180;2022-11-20T13:47:23;10.90;;;4.27;;
20669;SDS011;10494;50.868;4.180;2022-11-20T13:49:50;8.60;;;4.43;;
20669;SDS011;10494;50.868;4.180;2022-11-20T13:55:15;9.67;;;4.80;;
20669;SDS011;10494;50.868;4.180;2022-11-20T14:00:49;6.47;;;2.93;;
20669;SDS011;10494;50.868;4.180;2022-11-20T14:03:21;5.50;;;2.93;;
20669;SDS011;10494;50.868;4.180;2022-11-20T14:05:54;4.40;;;3.13;;
20669;SDS011;10494;50.868;4.180;2022-11-20T14:11:05;4.47;;;2.43;;
20669;SDS011;10494;50.868;4.180;2022-11-20T14:13:49;4.27;;;2.37;;
20669;SDS011;10494;50.868;4.180;2022-11-20T14:16:24;2.97;;;2.10;;
20669;SDS011;10494;50.868;4.180;2022-11-20T14:18:51;2.50;;;2.00;;
20669;SDS011;10494;50.868;4.180;2022-11-20T14:21:27;4.87;;;2.77;;
20669;SDS011;10494;50.868;4.180;2022-11-20T14:24:04;6.77;;;3.13;;
20669;SDS011;10494;50.868;4.180;2022-11-20T14:26:30;8.43;;;2.70;;
20669;SDS011;10494;50.868;4.180;2022-11-20T14:28:57;3.70;;;2.50;;
20669;SDS011;10494;50.868;4.180;2022-11-20T14:31:24;6.07;;;2.50;;
20669;SDS011;10494;50.868;4.180;2022-11-20T14:33:54;3.73;;;2.40;;
20669;SDS011;10494;50.868;4.180;2022-11-20T14:36:21;6.60;;;2.60;;
20669;SDS011;10494;50.868;4.180;2022-11-20T14:38:49;6.40;;;3.27;;
20669;SDS011;10494;50.868;4.180;2022-11-20T14:41:17;4.40;;;2.80;;
20669;SDS011;10494;50.868;4.180;2022-11-20T14:43:45;7.10;;;3.30;;
20669;SDS011;10494;50.868;4.180;2022-11-20T14:46:12;5.50;;;2.63;;
20669;SDS011;10494;50.868;4.180;2022-11-20T14:56:38;5.40;;;3.67;;
20669;SDS011;10494;50.868;4.180;2022-11-20T14:59:03;3.73;;;2.80;;
20669;SDS011;10494;50.868;4.180;2022-11-20T15:01:30;4.40;;;3.30;;
20669;SDS011;10494;50.868;4.180;2022-11-20T15:03:59;4.47;;;2.87;;
20669;SDS011;10494;50.868;4.180;2022-11-20T15:06:35;6.63;;;2.93;;
20669;SDS011;10494;50.868;4.180;2022-11-20T15:09:04;5.60;;;2.87;;
20669;SDS011;10494;50.868;4.180;2022-11-20T15:11:38;6.97;;;2.87;;
20669;SDS011;10494;50.868;4.180;2022-11-20T15:14:08;7.27;;;3.33;;
20669;SDS011;10494;50.868;4.180;2022-11-20T15:16:34;6.23;;;3.33;;
20669;SDS011;10494;50.868;4.180;2022-11-20T15:19:15;8.63;;;3.50;;
20669;SDS011;10494;50.868;4.180;2022-11-20T15:21:43;5.78;;;3.20;;
20669;SDS011;10494;50.868;4.180;2022-11-20T15:24:09;8.43;;;3.83;;
20669;SDS011;10494;50.868;4.180;2022-11-20T15:26:35;9.23;;;3.63;;
20669;SDS011;10494;50.868;4.180;2022-11-20T15:29:04;6.60;;;4.03;;
20669;SDS011;10494;50.868;4.180;2022-11-20T15:31:29;6.22;;;3.75;;
20669;SDS011;10494;50.868;4.180;2022-11-20T15:33:55;11.32;;;4.00;;
20669;SDS011;10494;50.868;4.180;2022-11-20T15:36:20;15.60;;;4.13;;
20669;SDS011;10494;50.868;4.180;2022-11-20T15:38:46;14.27;;;4.70;;
20669;SDS011;10494;50.868;4.180;2022-11-20T15:41:12;9.53;;;3.80;;
20669;SDS011;10494;50.868;4.180;2022-11-20T15:43:37;11.07;;;3.63;;
20669;SDS011;10494;50.868;4.180;2022-11-20T15:46:04;14.50;;;4.87;;
20669;SDS011;10494;50.868;4.180;2022-11-20T15:48:43;13.98;;;3.88;;
20669;SDS011;10494;50.868;4.180;2022-11-20T15:53:36;12.20;;;4.10;;
20669;SDS011;10494;50.868;4.180;2022-11-20T15:56:02;14.85;;;4.05;;
20669;SDS011;10494;50.868;4.180;2022-11-20T15:58:29;19.15;;;4.00;;
20669;SDS011;10494;50.868;4.180;2022-11-20T16:00:54;19.23;;;4.27;;
20669;SDS011;10494;50.868;4.180;2022-11-20T16:03:20;13.52;;;3.25;;
20669;SDS011;10494;50.868;4.180;2022-11-20T16:05:46;14.53;;;3.47;;
20669;SDS011;10494;50.868;4.180;2022-11-20T16:08:11;21.05;;;4.22;;
20669;SDS011;10494;50.868;4.180;2022-11-20T16:10:37;16.20;;;3.07;;
20669;SDS011;10494;50.868;4.180;2022-11-20T16:13:03;17.15;;;3.28;;
20669;SDS011;10494;50.868;4.180;2022-11-20T16:15:55;20.40;;;3.63;;
20669;SDS011;10494;50.868;4.180;2022-11-20T16:18:23;15.15;;;3.08;;
20669;SDS011;10494;50.868;4.180;2022-11-20T16:20:49;24.17;;;3.53;;
20669;SDS011;10494;50.868;4.180;2022-11-20T16:23:17;18.75;;;4.25;;
20669;SDS011;10494;50.868;4.180;2022-11-20T16:25:43;34.50;;;6.70;;
20669;SDS011;10494;50.868;4.180;2022-11-20T16:28:10;30.07;;;5.07;;
20669;SDS011;10494;50.868;4.180;2022-11-20T16:30:36;28.07;;;4.10;;
20669;SDS011;10494;50.868;4.180;2022-11-20T16:33:02;19.53;;;3.80;;
20669;SDS011;10494;50.868;4.180;2022-11-20T16:35:29;23.53;;;4.77;;
20669;SDS011;10494;50.868;4.180;2022-11-20T16:37:55;28.90;;;5.33;;
20669;SDS011;10494;50.868;4.180;2022-11-20T16:40:22;22.67;;;4.47;;
20669;SDS011;10494;50.868;4.180;2022-11-20T16:42:48;21.33;;;5.83;;
20669;SDS011;10494;50.868;4.180;2022-11-20T16:45:13;26.77;;;5.90;;